createdAt,value
2023-05-19T00:04:01.613Z,19.9
2023-05-19T00:14:04.011Z,19.8
2023-05-19T00:24:05.802Z,19.7
2023-05-19T00:34:07.964Z,19.8
2023-05-19T00:44:10.359Z,19.7
2023-05-19T00:54:12.892Z,19.7
2023-05-19T01:04:14.688Z,19.6
2023-05-19T01:14:17.164Z,19.6
2023-05-19T01:24:19.107Z,19.5
2023-05-19T01:34:20.835Z,19.5
2023-05-19T01:44:23.275Z,19.5
2023-05-19T01:54:25.214Z,19.4
2023-05-19T02:04:27.040Z,19.4
2023-05-19T02:14:29.287Z,19.4
2023-05-19T02:24:31.178Z,19.3
2023-05-19T02:34:33.166Z,19.3
2023-05-19T02:44:34.989Z,19.2
2023-05-19T02:54:37.667Z,19.2
2023-05-19T03:04:39.525Z,19.2
2023-05-19T03:14:41.275Z,19.1
2023-05-19T03:24:43.087Z,19.1
2023-05-19T03:34:45.236Z,19.1
2023-05-19T03:44:47.052Z,19.1
2023-05-19T03:54:49.541Z,19.1
2023-05-19T04:04:51.812Z,19.1
2023-05-19T04:14:53.542Z,19.1
2023-05-19T04:24:56.025Z,19.2
2023-05-19T04:34:58.416Z,19.3
2023-05-19T04:45:00.261Z,19.4
2023-05-19T04:55:02.132Z,19.5
2023-05-19T05:05:04.779Z,19.6
2023-05-19T05:15:07.312Z,19.8
2023-05-19T05:25:09.312Z,19.8
2023-05-19T05:35:11.406Z,20.1
2023-05-19T05:45:13.977Z,20.3
2023-05-19T06:05:19.231Z,21
2023-05-19T06:15:21.476Z,21.3
2023-05-19T06:25:23.494Z,21.9
2023-05-19T06:35:26.113Z,23.2
2023-05-19T06:45:28.613Z,23.9
2023-05-19T06:55:30.295Z,24.6
2023-05-19T07:05:32.333Z,25
2023-05-19T07:15:34.812Z,25.3
2023-05-19T07:25:37.513Z,25.4
2023-05-19T07:35:39.605Z,26.1
2023-05-19T07:45:41.755Z,26.4
2023-05-19T07:55:43.805Z,26.6
2023-05-19T08:05:46.224Z,26.8
2023-05-19T08:15:48.769Z,27
2023-05-19T08:25:50.684Z,26.9
2023-05-19T08:35:52.792Z,27.2
2023-05-19T08:45:55.377Z,27.1
2023-05-19T08:55:57.547Z,27
2023-05-19T09:05:59.449Z,26.1
2023-05-19T09:16:01.754Z,25.9
2023-05-19T09:26:03.881Z,25.6
2023-05-19T09:36:05.822Z,25.9
2023-05-19T09:46:08.437Z,25.7
2023-05-19T09:56:10.565Z,25.2
2023-05-19T10:06:12.829Z,25.2
2023-05-19T10:16:14.769Z,25
2023-05-19T10:26:16.537Z,24.9
2023-05-19T10:36:18.836Z,24.7
2023-05-19T10:46:21.032Z,24.6
2023-05-19T10:56:23.441Z,24.4
2023-05-19T11:06:25.492Z,24.3
2023-05-19T11:16:27.483Z,24.2
2023-05-19T11:26:30.060Z,24.1
2023-05-19T11:46:34.551Z,23.9
2023-05-19T11:46:56.415Z,23.9
2023-05-19T11:56:44.159Z,23.8
2023-05-19T12:06:46.204Z,23.6
2023-05-19T12:16:48.273Z,23.6
2023-05-19T12:26:50.833Z,23.6
2023-05-19T12:36:53.028Z,23.6
2023-05-19T12:46:55.219Z,23.5
2023-05-19T12:56:57.472Z,23.4
2023-05-19T13:06:59.875Z,23.3
2023-05-19T13:17:02.298Z,23.3
2023-05-19T13:27:04.392Z,23.4
2023-05-19T13:37:07.720Z,23.4
2023-05-19T13:47:09.636Z,23.4
2023-05-19T13:57:11.886Z,23.3
2023-05-19T14:07:14.491Z,23.4
2023-05-19T14:17:16.686Z,23.3
2023-05-19T14:37:20.784Z,23.3
2023-05-19T14:47:22.540Z,23.2
2023-05-19T14:57:24.798Z,23.1
2023-05-19T15:07:27.201Z,23
2023-05-19T15:17:29.329Z,22.9
2023-05-19T15:27:31.914Z,22.9
2023-05-19T15:37:33.880Z,22.9
2023-05-19T15:47:36.309Z,22.8
2023-05-19T15:57:38.187Z,22.7
2023-05-19T16:07:40.203Z,22.8
2023-05-19T16:17:42.768Z,22.7
2023-05-19T16:27:44.516Z,22.7
2023-05-19T16:37:46.427Z,22.7
2023-05-19T16:47:48.852Z,22.6
2023-05-19T16:57:51.156Z,22.6
2023-05-19T17:27:57.398Z,22.4
2023-05-19T17:37:59.533Z,22.4
2023-05-19T17:48:01.278Z,22.4
2023-05-19T17:58:03.623Z,22.3
2023-05-19T18:08:05.552Z,22.2
2023-05-19T18:18:07.316Z,22.2
2023-05-19T18:28:09.404Z,22.2
2023-05-19T18:38:11.428Z,22.1
2023-05-19T18:48:14.037Z,22
2023-05-19T18:58:16.509Z,21.9
2023-05-19T19:18:20.000Z,21.9
2023-05-19T19:28:21.934Z,21.8
2023-05-19T19:38:23.654Z,21.7
2023-05-19T19:48:25.700Z,21.7
2023-05-19T19:58:27.925Z,21.6
2023-05-19T20:08:29.865Z,21.5
2023-05-19T20:18:31.923Z,21.5
2023-05-19T20:28:34.194Z,21.4
2023-05-19T20:38:36.022Z,21.4
2023-05-19T20:48:38.634Z,21.3
2023-05-19T20:58:40.817Z,21.2
2023-05-19T21:08:43.250Z,21.2
2023-05-19T21:18:45.890Z,21.2
2023-05-19T21:28:47.832Z,21.2
2023-05-19T21:38:50.143Z,21.1
2023-05-19T21:48:52.146Z,21.1
2023-05-19T21:58:54.062Z,21.1
2023-05-19T22:08:56.578Z,21.1
2023-05-19T22:18:58.356Z,21.1
2023-05-19T22:49:04.650Z,21
2023-05-19T22:59:06.931Z,21
2023-05-19T23:19:10.588Z,20.9
2023-05-19T23:29:12.871Z,20.9
2023-05-19T23:39:15.171Z,20.9
2023-05-19T23:49:17.437Z,20.9
2023-05-19T23:59:19.965Z,20.8
